Time;durP1;ratioP1;P1;durP2;ratioP2;P2;SDS_P1;SDS_P2;PMS_P1;PMS_P2;Temp;Humidity;BMP_temperature;BMP_pressure;BME280_temperature;BME280_humidity;BME280_pressure;Samples;Min_cycle;Max_cycle;Signal;HPM_P1;HPM_P2
2023/08/17 00:01:33;;;;;;;13.20;3.80;;;;;;;20.06;87.91;100902.86;213519;1291;143552;-80
2023/08/17 00:06:33;;;;;;;6.60;3.50;;;;;;;20.05;88.25;100911.91;214419;1291;139031;-80
2023/08/17 00:11:34;;;;;;;9.90;4.40;;;;;;;20.03;88.65;100908.50;213986;1291;141403;-81
2023/08/17 00:16:35;;;;;;;9.10;3.90;;;;;;;20.02;88.80;100905.09;214532;1289;138866;-81
2023/08/17 00:21:36;;;;;;;6.80;3.20;;;;;;;20.01;88.79;100908.63;214231;1291;141346;-80
2023/08/17 00:26:37;;;;;;;8.70;4.10;;;;;;;19.99;88.98;100910.51;214362;1293;139158;-81
2023/08/17 00:31:37;;;;;;;11.20;3.80;;;;;;;19.93;89.12;100907.27;213883;1290;142174;-81
2023/08/17 00:36:38;;;;;;;13.80;4.00;;;;;;;19.91;89.48;100919.36;215694;1291;138942;-81
2023/08/17 00:41:38;;;;;;;7.50;3.50;;;;;;;19.88;89.52;100925.90;217183;1289;142240;-80
2023/08/17 00:46:39;;;;;;;8.30;4.20;;;;;;;19.85;89.97;100928.66;216820;1292;140733;-80
2023/08/17 00:51:39;;;;;;;10.90;4.60;;;;;;;19.80;90.66;100930.83;214358;1291;141493;-81
2023/08/17 00:56:40;;;;;;;6.90;3.90;;;;;;;19.75;91.14;100929.27;213511;1296;139010;-81
2023/08/17 01:01:42;;;;;;;9.60;4.40;;;;;;;19.72;91.00;100943.35;212999;1294;141110;-80
2023/08/17 01:06:42;;;;;;;8.90;4.00;;;;;;;19.71;91.36;100939.78;213705;1293;139361;-81
2023/08/17 01:12:02;;;;;;;8.20;4.30;;;;;;;19.68;92.04;100935.36;213091;1293;141819;-81
2023/08/17 01:17:28;;;;;;;11.90;4.20;;;;;;;19.63;92.88;100941.17;213720;1291;105317;-81
2023/08/17 01:22:30;;;;;;;8.30;3.90;;;;;;;19.61;93.02;100963.33;212926;1293;142290;-80
2023/08/17 01:27:40;;;;;;;7.80;3.80;;;;;;;19.65;93.04;100971.47;213672;1293;138985;-80
2023/08/17 01:32:47;;;;;;;9.60;4.50;;;;;;;19.72;94.18;100963.15;213375;1291;140786;-81
2023/08/17 01:37:50;;;;;;;8.90;4.60;;;;;;;19.71;94.05;100992.52;213533;1291;138986;-80
2023/08/17 01:42:51;;;;;;;13.90;5.30;;;;;;;19.70;96.87;101069.38;213461;1290;141807;-81
2023/08/17 01:47:52;;;;;;;9.70;5.30;;;;;;;19.58;98.39;101116.56;214689;1291;97982;-80
2023/08/17 01:52:52;;;;;;;14.90;5.90;;;;;;;19.50;98.97;101137.11;214338;1289;140796;-80
2023/08/17 01:57:53;;;;;;;12.30;5.90;;;;;;;19.45;99.79;101152.73;214864;1293;139096;-79
2023/08/17 02:02:53;;;;;;;10.40;5.40;;;;;;;19.43;99.80;101153.89;214326;1294;140962;-80
2023/08/17 02:07:54;;;;;;;10.60;5.50;;;;;;;19.45;99.99;101140.60;214785;1296;138983;-80
2023/08/17 02:12:55;;;;;;;14.70;6.50;;;;;;;19.46;100.00;101133.33;214332;1290;141274;-81
2023/08/17 02:17:59;;;;;;;11.10;5.70;;;;;;;19.44;100.00;101135.05;214577;1293;139563;-81
2023/08/17 02:22:59;;;;;;;11.40;6.00;;;;;;;19.44;100.00;101123.01;214636;1290;141422;-80
2023/08/17 02:28:00;;;;;;;12.90;4.90;;;;;;;19.43;100.00;101127.88;215118;1290;139132;-80
2023/08/17 02:33:00;;;;;;;10.90;5.80;;;;;;;19.43;100.00;101131.30;214313;1290;140919;-82
2023/08/17 02:38:01;;;;;;;11.90;5.50;;;;;;;19.46;100.00;101114.04;214779;1291;139246;-83
2023/08/17 02:43:01;;;;;;;12.20;6.00;;;;;;;19.45;100.00;101078.95;214408;1291;141405;-85
2023/08/17 02:48:02;;;;;;;10.10;4.80;;;;;;;19.42;100.00;101092.16;214773;1291;139215;-86
2023/08/17 02:53:03;;;;;;;9.40;5.60;;;;;;;19.41;100.00;101086.83;214505;1290;143051;-85
2023/08/17 02:58:03;;;;;;;9.90;5.20;;;;;;;19.39;100.00;101059.02;214842;1293;138810;-84
2023/08/17 03:03:04;;;;;;;10.40;5.40;;;;;;;19.33;100.00;101006.71;214352;1290;140841;-85
2023/08/17 03:08:05;;;;;;;9.30;5.30;;;;;;;19.22;100.00;100974.41;214682;1290;139970;-84
2023/08/17 03:13:05;;;;;;;11.80;5.70;;;;;;;19.11;100.00;100960.93;213267;1291;141659;-84
2023/08/17 03:18:06;;;;;;;10.50;5.20;;;;;;;18.97;100.00;100940.41;213559;1291;139167;-84
2023/08/17 03:23:08;;;;;;;12.10;4.90;;;;;;;18.88;100.00;100928.36;213227;1293;141953;-83
2023/08/17 03:28:08;;;;;;;10.90;5.10;;;;;;;18.82;100.00;100944.30;213534;1291;138964;-83
2023/08/17 03:33:09;;;;;;;11.60;5.70;;;;;;;18.80;100.00;100962.42;213130;1293;141233;-83
2023/08/17 03:38:09;;;;;;;9.70;5.40;;;;;;;18.78;100.00;100994.09;213440;1295;139069;-84
2023/08/17 03:43:10;;;;;;;11.30;6.50;;;;;;;18.80;100.00;101009.52;213367;1290;141144;-84
2023/08/17 03:48:10;;;;;;;14.10;6.20;;;;;;;18.81;100.00;101059.63;214674;1293;140280;-85
2023/08/17 03:53:11;;;;;;;10.80;5.70;;;;;;;18.74;100.00;101070.63;214575;1290;140521;-88
2023/08/17 03:58:12;;;;;;;12.00;5.90;;;;;;;18.72;100.00;101083.71;214742;1291;139940;-90
2023/08/17 04:03:12;;;;;;;14.00;5.90;;;;;;;18.74;100.00;101106.98;214369;1293;141481;-87
2023/08/17 04:08:13;;;;;;;19.10;6.90;;;;;;;18.65;100.00;101131.04;214539;1291;139573;-83
2023/08/17 04:13:14;;;;;;;13.40;6.50;;;;;;;18.58;100.00;101127.52;214415;1293;141108;-86
2023/08/17 04:18:14;;;;;;;17.40;6.80;;;;;;;18.59;100.00;101127.69;214716;1291;139874;-88
2023/08/17 04:23:14;;;;;;;13.90;6.10;;;;;;;18.54;100.00;101172.66;214449;1290;143137;-89
2023/08/17 04:28:15;;;;;;;12.50;6.40;;;;;;;18.43;100.00;101179.30;215127;1291;139682;-86
2023/08/17 04:33:16;;;;;;;14.70;6.00;;;;;;;18.35;100.00;101137.71;215033;1293;141540;-86
2023/08/17 04:38:17;;;;;;;13.50;5.20;;;;;;;18.20;100.00;101091.73;213623;1291;139162;-83
2023/08/17 04:43:17;;;;;;;9.20;3.70;;;;;;;18.11;100.00;101081.23;213211;1291;141168;-85
2023/08/17 04:48:17;;;;;;;11.40;4.40;;;;;;;17.99;100.00;101045.68;213887;1293;138978;-83
2023/08/17 04:53:18;;;;;;;9.50;4.50;;;;;;;17.86;100.00;101000.21;213021;1291;140892;-82
2023/08/17 04:58:19;;;;;;;8.50;4.00;;;;;;;17.78;100.00;100955.33;213454;1293;138676;-82
2023/08/17 05:03:19;;;;;;;9.60;3.80;;;;;;;17.65;100.00;100902.42;213067;1291;141074;-83
2023/08/17 05:08:21;;;;;;;7.90;4.00;;;;;;;17.61;100.00;100913.73;213462;1291;138859;-83
2023/08/17 05:13:22;;;;;;;7.80;3.70;;;;;;;17.60;100.00;100924.25;213316;1294;142951;-83
2023/08/17 05:18:22;;;;;;;9.10;4.30;;;;;;;17.58;100.00;100922.67;213895;1291;139135;-82
2023/08/17 05:23:23;;;;;;;8.10;3.70;;;;;;;17.52;100.00;100924.56;214094;1290;140822;-83
2023/08/17 05:28:23;;;;;;;5.20;3.40;;;;;;;17.49;100.00;100917.76;214952;1290;138870;-81
2023/08/17 05:33:23;;;;;;;11.70;4.40;;;;;;;17.44;100.00;100911.21;214301;1290;140978;-83
2023/08/17 05:38:24;;;;;;;11.60;4.70;;;;;;;17.37;100.00;100902.83;214919;1293;139109;-83
2023/08/17 05:43:25;;;;;;;7.50;3.80;;;;;;;17.34;100.00;100901.17;214199;1291;140612;-82
2023/08/17 05:48:26;;;;;;;10.10;4.40;;;;;;;17.28;100.00;100914.81;214609;1291;139093;-82
2023/08/17 05:53:26;;;;;;;8.80;4.10;;;;;;;17.27;100.00;100923.41;214389;1290;141564;-81
2023/08/17 05:58:26;;;;;;;7.60;3.50;;;;;;;17.22;100.00;100933.46;214770;1291;139709;-84
2023/08/17 06:03:27;;;;;;;6.80;3.50;;;;;;;17.16;100.00;100933.42;216116;1291;141022;-81
2023/08/17 06:08:27;;;;;;;7.70;3.90;;;;;;;17.13;100.00;100925.34;217537;1291;138936;-83
2023/08/17 06:13:28;;;;;;;7.30;3.70;;;;;;;17.12;100.00;100928.14;216067;1290;141703;-83
2023/08/17 06:18:30;;;;;;;7.30;3.60;;;;;;;17.10;100.00;100922.12;216311;1291;139283;-82
2023/08/17 06:23:30;;;;;;;9.20;4.30;;;;;;;16.98;100.00;100936.35;213477;1290;141159;-82
2023/08/17 06:28:31;;;;;;;10.50;4.80;;;;;;;16.95;100.00;100909.52;213754;1293;139318;-83
2023/08/17 06:33:31;;;;;;;9.00;4.30;;;;;;;16.91;100.00;100898.34;213179;1291;141921;-82
2023/08/17 06:38:32;;;;;;;9.50;3.60;;;;;;;16.85;100.00;100900.52;213723;1295;139556;-84
2023/08/17 06:43:32;;;;;;;9.80;4.40;;;;;;;16.77;100.00;100899.39;213259;1291;142017;-83
2023/08/17 06:48:33;;;;;;;8.10;4.30;;;;;;;16.71;100.00;100918.57;213636;1291;138885;-83
2023/08/17 06:53:33;;;;;;;8.90;4.50;;;;;;;16.70;100.00;100920.64;213350;1290;141986;-82
2023/08/17 06:58:34;;;;;;;9.40;4.60;;;;;;;16.72;100.00;100934.91;213439;1291;139194;-82
2023/08/17 07:03:34;;;;;;;8.60;4.10;;;;;;;16.80;100.00;100943.30;213365;1291;140797;-81
2023/08/17 07:08:35;;;;;;;7.50;3.70;;;;;;;16.87;100.00;100942.69;213952;1291;139087;-84
2023/08/17 07:13:35;;;;;;;8.50;4.00;;;;;;;16.94;100.00;100939.55;213882;1291;141252;-83
2023/08/17 07:18:36;;;;;;;8.60;3.80;;;;;;;16.97;100.00;100935.87;215009;1291;139142;-82
2023/08/17 07:23:36;;;;;;;5.50;3.10;;;;;;;17.01;100.00;100945.70;215024;1291;141429;-83
2023/08/17 07:28:37;;;;;;;8.50;3.50;;;;;;;17.02;100.00;100956.17;215689;1291;138698;-83
2023/08/17 07:33:41;;;;;;;9.10;3.30;;;;;;;17.06;100.00;100958.30;215046;1296;140693;-82
2023/08/17 07:38:41;;;;;;;7.30;3.50;;;;;;;17.19;100.00;100957.96;215165;1291;139269;-84
2023/08/17 07:43:42;;;;;;;7.40;3.80;;;;;;;17.29;100.00;100963.70;214627;1290;139896;-82
2023/08/17 07:48:42;;;;;;;8.00;3.60;;;;;;;17.38;100.00;100965.15;214928;1291;139134;-82
2023/08/17 07:53:43;;;;;;;8.50;3.60;;;;;;;17.54;100.00;100975.76;214366;1291;141754;-82
2023/08/17 07:58:43;;;;;;;6.80;3.30;;;;;;;17.72;100.00;100968.45;215552;1291;138720;-84
2023/08/17 08:03:44;;;;;;;6.10;3.00;;;;;;;17.96;100.00;100962.86;215758;1290;141695;-84
2023/08/17 08:08:44;;;;;;;9.40;3.90;;;;;;;18.25;100.00;100972.42;217101;1291;138922;-85
2023/08/17 08:13:45;;;;;;;10.20;3.60;;;;;;;18.60;100.00;100974.09;216867;1290;141496;-85
2023/08/17 08:18:45;;;;;;;8.30;3.90;;;;;;;18.92;100.00;100986.15;217325;1291;139107;-86
2023/08/17 08:23:46;;;;;;;8.40;3.50;;;;;;;19.16;100.00;100994.10;216816;1291;141940;-86
2023/08/17 08:28:46;;;;;;;9.20;3.40;;;;;;;19.36;100.00;100996.60;217477;1291;139553;-84
2023/08/17 08:33:47;;;;;;;6.60;3.00;;;;;;;19.58;100.00;100999.61;216903;1292;141461;-84
2023/08/17 08:38:47;;;;;;;8.30;3.60;;;;;;;19.75;100.00;100996.20;217497;1293;138909;-83
2023/08/17 08:43:48;;;;;;;7.90;4.40;;;;;;;19.92;100.00;101007.00;216323;1290;140956;-84
2023/08/17 08:48:52;;;;;;;7.50;3.50;;;;;;;20.09;100.00;101023.80;213712;1291;138988;-83
2023/08/17 08:54:01;;;;;;;6.30;3.30;;;;;;;20.26;100.00;101031.15;213820;1290;141330;-84
2023/08/17 08:59:03;;;;;;;5.60;3.40;;;;;;;20.47;100.00;101022.11;213435;1291;142050;-84
2023/08/17 09:04:04;;;;;;;10.00;4.90;;;;;;;20.52;100.00;101021.13;214153;1291;138839;-83
2023/08/17 09:09:06;;;;;;;8.00;3.50;;;;;;;20.60;100.00;101031.45;213403;1291;140403;-84
2023/08/17 09:14:07;;;;;;;7.70;3.60;;;;;;;20.75;100.00;101028.98;213933;1290;139323;-85
2023/08/17 09:19:07;;;;;;;7.80;3.90;;;;;;;20.99;100.00;101023.83;213172;1295;141325;-83
2023/08/17 09:24:08;;;;;;;7.50;3.60;;;;;;;21.34;100.00;101016.47;213774;1291;138908;-83
2023/08/17 09:29:19;;;;;;;10.80;4.60;;;;;;;21.72;100.00;101016.92;213524;1290;142914;-83
2023/08/17 09:34:20;;;;;;;7.60;3.70;;;;;;;22.19;100.00;101023.15;214023;1291;138888;-84
2023/08/17 09:39:20;;;;;;;11.00;4.10;;;;;;;22.61;99.70;101029.46;213486;1291;140770;-84
2023/08/17 09:44:22;;;;;;;9.00;3.60;;;;;;;22.78;97.96;101025.02;214059;1293;140208;-84
2023/08/17 09:49:25;;;;;;;9.70;4.00;;;;;;;23.13;99.21;101024.62;213874;1291;141289;-83
2023/08/17 09:54:26;;;;;;;8.20;3.90;;;;;;;23.61;97.39;101026.92;214978;1291;302482;-85
2023/08/17 09:59:28;;;;;;;9.40;3.80;;;;;;;23.79;96.57;101021.86;213394;1290;141636;-85
2023/08/17 10:04:31;;;;;;;12.50;4.00;;;;;;;24.01;91.37;101020.70;213913;1296;139080;-84
2023/08/17 10:09:38;;;;;;;9.50;3.60;;;;;;;24.16;93.14;101017.46;213807;1291;141245;-84
2023/08/17 10:14:49;;;;;;;8.90;4.20;;;;;;;24.48;92.02;101010.20;214211;1293;138924;-83
2023/08/17 10:19:53;;;;;;;8.10;3.80;;;;;;;24.97;92.20;101009.92;213543;1291;141677;-83
2023/08/17 10:24:55;;;;;;;8.40;4.30;;;;;;;25.54;90.55;100998.95;213975;1291;138770;-83
2023/08/17 10:29:57;;;;;;;10.50;4.50;;;;;;;26.06;89.40;101003.71;213276;1291;141382;-83
2023/08/17 10:34:59;;;;;;;11.50;5.00;;;;;;;26.58;85.40;101001.52;213743;1293;97975;-83
2023/08/17 10:40:00;;;;;;;9.60;4.80;;;;;;;26.69;84.33;100999.16;213353;1291;140732;-86
2023/08/17 10:45:03;;;;;;;11.00;5.00;;;;;;;27.37;82.32;100997.63;213790;1291;139283;-85
2023/08/17 10:50:07;;;;;;;9.80;5.20;;;;;;;27.74;79.12;100994.73;213472;1290;139945;-85
2023/08/17 10:55:12;;;;;;;7.70;4.30;;;;;;;28.32;78.61;100989.61;214557;1291;138969;-84
2023/08/17 11:00:31;;;;;;;7.90;4.80;;;;;;;28.88;74.54;100987.06;213496;1291;141998;-84
2023/08/17 11:05:36;;;;;;;10.70;4.80;;;;;;;29.36;77.80;100978.45;213985;1293;111922;-84
2023/08/17 11:10:38;;;;;;;11.00;4.60;;;;;;;30.06;75.71;100982.30;213494;1291;140398;-84
2023/08/17 11:15:45;;;;;;;11.40;5.20;;;;;;;30.65;73.17;100978.13;213840;1294;138048;-84
2023/08/17 11:20:46;;;;;;;10.90;5.20;;;;;;;30.94;69.93;100969.84;213268;1290;140452;-84
2023/08/17 11:25:47;;;;;;;10.80;5.50;;;;;;;30.95;68.72;100960.03;213702;1291;138206;-86
2023/08/17 11:30:58;;;;;;;8.70;4.60;;;;;;;31.12;68.00;100956.91;213496;1293;139312;-84
2023/08/17 11:36:01;;;;;;;8.90;4.80;;;;;;;31.36;66.91;100953.33;214294;1293;138358;-83
2023/08/17 11:41:06;;;;;;;9.80;5.20;;;;;;;31.48;66.14;100953.51;213983;1291;140243;-85
2023/08/17 11:46:07;;;;;;;8.50;5.40;;;;;;;31.55;65.92;100947.95;214163;1293;137985;-83
2023/08/17 11:51:07;;;;;;;9.20;4.60;;;;;;;31.34;64.19;100945.82;213611;1293;141474;-84
2023/08/17 11:56:08;;;;;;;9.10;5.70;;;;;;;31.51;65.19;100946.43;214414;1290;138096;-85
2023/08/17 12:01:12;;;;;;;9.50;4.60;;;;;;;31.65;62.85;100943.93;213941;1290;141813;-85
2023/08/17 12:06:15;;;;;;;7.50;5.00;;;;;;;31.55;64.41;100940.77;214266;1295;138658;-85
2023/08/17 12:11:17;;;;;;;8.30;4.80;;;;;;;31.85;64.16;100937.63;213377;1290;141081;-85
2023/08/17 12:16:22;;;;;;;9.70;5.20;;;;;;;31.94;62.56;100935.86;213746;1291;138090;-84
2023/08/17 12:21:23;;;;;;;10.10;5.40;;;;;;;31.94;63.23;100931.19;213382;1291;140415;-83
2023/08/17 12:26:23;;;;;;;8.10;5.30;;;;;;;32.07;62.47;100929.48;213761;1293;138713;-85
2023/08/17 12:31:24;;;;;;;8.30;5.30;;;;;;;32.13;62.08;100924.10;213306;1291;140052;-84
2023/08/17 12:36:24;;;;;;;8.90;5.40;;;;;;;32.10;62.03;100918.09;213708;1291;138070;-86
2023/08/17 12:41:24;;;;;;;9.30;5.20;;;;;;;31.88;61.76;100916.73;213777;1290;140035;-84
2023/08/17 12:46:25;;;;;;;10.70;6.20;;;;;;;31.88;62.47;100912.07;213772;1290;138734;-85
2023/08/17 12:51:26;;;;;;;10.00;5.50;;;;;;;31.74;61.89;100914.58;213331;1291;140030;-85
2023/08/17 12:56:26;;;;;;;10.30;5.40;;;;;;;31.68;62.52;100912.48;213954;1291;138481;-84
2023/08/17 13:01:27;;;;;;;10.20;6.10;;;;;;;31.64;62.68;100914.61;213472;1291;140568;-86
2023/08/17 13:06:27;;;;;;;9.80;6.30;;;;;;;31.62;62.76;100913.69;214357;1295;138885;-86
2023/08/17 13:11:27;;;;;;;9.40;5.90;;;;;;;31.42;61.99;100911.62;213939;1291;140591;-85
2023/08/17 13:16:28;;;;;;;10.30;6.40;;;;;;;31.12;62.84;100906.48;214552;1291;138695;-84
2023/08/17 13:21:28;;;;;;;8.50;5.10;;;;;;;31.05;62.98;100898.94;214167;1291;138988;-85
2023/08/17 13:26:30;;;;;;;9.70;5.70;;;;;;;31.17;64.29;100898.16;214705;1291;138215;-85
2023/08/17 13:31:31;;;;;;;8.90;5.10;;;;;;;31.26;63.02;100892.73;213785;1291;141310;-85
2023/08/17 13:36:31;;;;;;;8.90;5.70;;;;;;;31.19;64.07;100889.91;213818;1292;138185;-85
2023/08/17 13:41:32;;;;;;;7.60;5.10;;;;;;;31.24;64.13;100888.50;213315;1291;140098;-84
2023/08/17 13:46:32;;;;;;;9.40;5.80;;;;;;;31.34;64.05;100880.33;213501;1296;137918;-85
2023/08/17 13:51:33;;;;;;;9.10;5.70;;;;;;;31.19;64.24;100878.63;213152;1293;140055;-86
2023/08/17 13:56:33;;;;;;;11.70;6.40;;;;;;;31.19;64.50;100876.82;213838;1291;138231;-85
2023/08/17 14:01:33;;;;;;;9.60;6.10;;;;;;;31.14;64.99;100875.95;213137;1291;140352;-86
2023/08/17 14:06:34;;;;;;;10.50;5.90;;;;;;;31.12;64.63;100871.54;213692;1295;138385;-86
2023/08/17 14:11:34;;;;;;;11.60;6.10;;;;;;;30.98;65.40;100872.07;213307;1294;139774;-85
2023/08/17 14:16:36;;;;;;;9.50;6.30;;;;;;;30.98;65.11;100863.18;213719;1294;138138;-85
2023/08/17 14:21:36;;;;;;;14.20;5.80;;;;;;;30.83;65.55;100862.29;213325;1291;140999;-85
2023/08/17 14:26:37;;;;;;;10.60;6.50;;;;;;;30.60;66.41;100857.34;213928;1292;138330;-85
2023/08/17 14:31:37;;;;;;;7.30;5.20;;;;;;;30.49;66.10;100856.83;213285;1294;140765;-85
2023/08/17 14:36:37;;;;;;;10.60;6.20;;;;;;;30.49;67.28;100853.27;213685;1294;138202;-85
2023/08/17 14:41:38;;;;;;;9.60;6.00;;;;;;;30.51;66.80;100857.52;213575;1290;141076;-83
2023/08/17 14:46:39;;;;;;;9.90;6.40;;;;;;;30.27;66.56;100861.36;213869;1293;138442;-85
2023/08/17 14:51:40;;;;;;;12.20;6.60;;;;;;;29.96;67.11;100861.30;213557;1291;139256;-86
2023/08/17 14:56:41;;;;;;;10.80;6.70;;;;;;;29.72;68.00;100858.34;213763;1291;138625;-84
2023/08/17 15:01:41;;;;;;;13.50;7.40;;;;;;;29.56;68.91;100853.16;213408;1291;140565;-85
2023/08/17 15:06:42;;;;;;;9.60;6.80;;;;;;;29.45;68.93;100847.60;214017;1292;138278;-85
2023/08/17 15:11:42;;;;;;;12.10;7.70;;;;;;;29.38;69.01;100845.55;213640;1292;140280;-85
2023/08/17 15:16:43;;;;;;;10.00;6.50;;;;;;;28.99;69.65;100847.88;214026;1295;139547;-85
2023/08/17 15:21:43;;;;;;;11.20;7.20;;;;;;;28.78;70.95;100846.41;213538;1294;140075;-83
2023/08/17 15:26:43;;;;;;;11.90;7.10;;;;;;;28.63;71.20;100846.11;213968;1293;138256;-84
2023/08/17 15:31:44;;;;;;;11.20;6.50;;;;;;;28.57;72.01;100838.90;213285;1293;140756;-84
2023/08/17 15:36:44;;;;;;;10.50;7.40;;;;;;;28.62;72.04;100833.38;213881;1295;138220;-84
2023/08/17 15:41:45;;;;;;;9.90;7.10;;;;;;;28.54;71.70;100834.08;213454;1292;139732;-84
2023/08/17 15:46:45;;;;;;;9.50;7.70;;;;;;;28.38;72.97;100839.63;213690;1293;138924;-84
2023/08/17 15:51:46;;;;;;;12.50;7.40;;;;;;;28.27;73.16;100835.65;213555;1291;140790;-84
2023/08/17 15:56:46;;;;;;;12.70;7.90;;;;;;;28.20;73.40;100828.52;214301;1293;138221;-84
2023/08/17 16:01:47;;;;;;;13.20;9.00;;;;;;;28.23;74.39;100818.39;213353;1296;141035;-85
2023/08/17 16:07:26;;;;;;;;;;;;;;;;;;;;;
2023/08/17 16:12:28;;;;;;;11.40;7.50;;;;;;;27.99;75.14;100818.98;214073;1300;140677;-84
2023/08/17 16:17:29;;;;;;;12.90;7.80;;;;;;;28.05;75.91;100815.81;214987;1294;97971;-83
2023/08/17 16:22:29;;;;;;;12.80;6.90;;;;;;;28.02;76.36;100828.45;214492;1293;141199;-82
2023/08/17 16:27:29;;;;;;;10.00;7.10;;;;;;;27.83;76.96;100822.75;214716;1293;139559;-84
2023/08/17 16:32:31;;;;;;;13.60;7.60;;;;;;;27.74;77.34;100815.88;214193;1291;140502;-83
2023/08/17 16:37:31;;;;;;;12.30;7.40;;;;;;;27.61;77.58;100830.05;214641;1295;141493;-84
2023/08/17 16:42:32;;;;;;;12.10;7.30;;;;;;;27.42;77.79;100836.74;214555;1292;141075;-84
2023/08/17 16:47:32;;;;;;;17.20;8.20;;;;;;;27.16;78.49;100836.19;217269;1292;112186;-85
2023/08/17 16:52:33;;;;;;;11.20;7.20;;;;;;;26.94;79.27;100839.32;216941;1293;141189;-85
2023/08/17 16:57:33;;;;;;;14.60;7.30;;;;;;;26.82;80.14;100840.08;215035;1291;138990;-83
2023/08/17 17:02:34;;;;;;;13.00;7.30;;;;;;;26.76;80.43;100833.77;213628;1295;141422;-85
2023/08/17 17:07:34;;;;;;;11.90;7.00;;;;;;;26.64;81.08;100835.65;213729;1300;139150;-85
2023/08/17 17:12:35;;;;;;;12.50;7.70;;;;;;;26.45;81.77;100843.23;213320;1298;142291;-84
2023/08/17 17:17:35;;;;;;;14.10;7.60;;;;;;;26.26;82.27;100840.92;214103;1294;99295;-84
2023/08/17 17:22:36;;;;;;;13.10;7.60;;;;;;;26.07;82.73;100845.02;214065;1294;140549;-86
2023/08/17 17:27:36;;;;;;;13.50;7.40;;;;;;;25.91;83.41;100850.58;214149;1297;139230;-84
2023/08/17 17:32:37;;;;;;;11.70;7.00;;;;;;;25.73;84.56;100851.63;213527;1297;141796;-85
2023/08/17 17:37:37;;;;;;;13.40;7.70;;;;;;;25.59;84.38;100847.28;213961;1295;139420;-84
2023/08/17 17:42:38;;;;;;;12.60;7.90;;;;;;;25.50;85.04;100848.23;213452;1291;141012;-85
2023/08/17 17:47:38;;;;;;;10.40;7.40;;;;;;;25.39;85.28;100850.13;214197;1294;97958;-85
2023/08/17 17:52:39;;;;;;;10.00;7.60;;;;;;;25.31;85.23;100858.33;213380;1290;139557;-85
2023/08/17 17:57:39;;;;;;;13.30;8.00;;;;;;;25.20;85.65;100859.55;213912;1295;138845;-84
2023/08/17 18:02:40;;;;;;;13.70;8.40;;;;;;;25.02;87.45;100866.23;213244;1290;140610;-84
2023/08/17 18:07:40;;;;;;;12.80;8.10;;;;;;;24.81;88.03;100867.52;213553;1291;138946;-84
2023/08/17 18:12:41;;;;;;;11.20;7.40;;;;;;;24.66;88.74;100873.58;213795;1291;140304;-83
2023/08/17 18:17:41;;;;;;;12.10;7.70;;;;;;;24.55;89.02;100873.94;213912;1293;98067;-84
2023/08/17 18:22:42;;;;;;;10.70;7.60;;;;;;;24.41;88.80;100867.41;213577;1294;140740;-84
2023/08/17 18:27:42;;;;;;;13.20;8.30;;;;;;;24.32;89.98;100862.92;213777;1294;138835;-83
2023/08/17 18:32:43;;;;;;;12.70;8.70;;;;;;;24.17;90.17;100857.02;213275;1293;140358;-84
2023/08/17 18:37:45;;;;;;;13.50;8.50;;;;;;;24.04;91.22;100858.86;213811;1291;139087;-84
2023/08/17 18:42:48;;;;;;;13.60;8.40;;;;;;;23.88;91.55;100858.96;213156;1293;141601;-83
2023/08/17 18:47:48;;;;;;;12.60;8.40;;;;;;;23.75;91.83;100859.59;213863;1291;105434;-83
2023/08/17 18:52:49;;;;;;;15.50;9.00;;;;;;;23.64;93.70;100845.05;213484;1290;140889;-83
2023/08/17 18:57:49;;;;;;;15.20;9.50;;;;;;;23.50;94.66;100839.70;213760;1290;138800;-84
2023/08/17 19:02:50;;;;;;;17.20;9.20;;;;;;;23.36;95.41;100837.21;213281;1291;140598;-84
2023/08/17 19:07:50;;;;;;;14.40;9.10;;;;;;;23.26;95.98;100837.67;213669;1292;139029;-84
2023/08/17 19:12:51;;;;;;;12.00;8.30;;;;;;;23.16;95.64;100836.45;213606;1293;142573;-85
2023/08/17 19:17:52;;;;;;;14.20;8.60;;;;;;;23.06;95.95;100835.32;214200;1292;97978;-86
2023/08/17 19:22:54;;;;;;;15.60;8.70;;;;;;;22.97;96.35;100831.14;213318;1291;141597;-86
2023/08/17 19:27:56;;;;;;;12.00;8.50;;;;;;;22.87;97.04;100835.71;213913;1293;138774;-85
2023/08/17 19:32:58;;;;;;;10.60;8.20;;;;;;;22.73;98.36;100840.33;213385;1291;141111;-85
2023/08/17 19:38:00;;;;;;;14.80;8.80;;;;;;;22.61;98.90;100839.06;213810;1296;138993;-85
2023/08/17 19:43:00;;;;;;;16.70;8.30;;;;;;;22.48;99.48;100837.54;213646;1291;140689;-85
2023/08/17 19:48:00;;;;;;;13.20;8.90;;;;;;;22.36;99.72;100834.13;213977;1291;98877;-85
2023/08/17 19:53:01;;;;;;;15.70;8.20;;;;;;;22.28;99.84;100823.88;213646;1291;141381;-84
2023/08/17 19:58:01;;;;;;;15.60;8.90;;;;;;;22.20;100.00;100819.23;214535;1293;139241;-85
2023/08/17 20:03:02;;;;;;;13.50;7.90;;;;;;;22.12;100.00;100823.08;214078;1293;141248;-85
2023/08/17 20:08:03;;;;;;;12.00;7.90;;;;;;;22.06;100.00;100825.34;213981;1291;139278;-84
2023/08/17 20:13:04;;;;;;;12.10;7.70;;;;;;;22.00;100.00;100825.52;213469;1291;142695;-84
2023/08/17 20:18:05;;;;;;;12.20;7.70;;;;;;;21.94;100.00;100826.02;214076;1295;98375;-84
2023/08/17 20:23:05;;;;;;;12.80;8.90;;;;;;;21.87;100.00;100820.47;213530;1290;141274;-85
2023/08/17 20:28:05;;;;;;;14.40;8.50;;;;;;;21.80;100.00;100818.98;213877;1293;139104;-85
2023/08/17 20:33:06;;;;;;;13.50;9.00;;;;;;;21.74;100.00;100817.00;213865;1294;143246;-85
2023/08/17 20:38:08;;;;;;;13.00;8.40;;;;;;;21.71;100.00;100819.48;214002;1291;139080;-84
2023/08/17 20:43:08;;;;;;;13.60;9.10;;;;;;;21.68;100.00;100832.27;213485;1291;142992;-85
2023/08/17 20:48:10;;;;;;;13.80;8.90;;;;;;;21.62;100.00;100836.89;213896;1290;139486;-84
2023/08/17 20:53:11;;;;;;;13.10;8.70;;;;;;;21.55;100.00;100830.30;214470;1290;140905;-84
2023/08/17 20:58:11;;;;;;;13.10;7.90;;;;;;;21.50;100.00;100826.35;213665;1293;139324;-84
2023/08/17 21:03:12;;;;;;;15.20;8.30;;;;;;;21.46;100.00;100833.02;213416;1290;141854;-83
2023/08/17 21:08:12;;;;;;;14.00;8.60;;;;;;;21.44;100.00;100836.35;213729;1294;139832;-85
2023/08/17 21:13:13;;;;;;;16.80;9.90;;;;;;;21.42;100.00;100843.78;213231;1291;141583;-83
2023/08/17 21:18:13;;;;;;;14.60;9.00;;;;;;;21.41;100.00;100839.23;213615;1291;139534;-82
2023/08/17 21:23:14;;;;;;;11.80;8.30;;;;;;;21.39;100.00;100841.05;213258;1290;140972;-83
2023/08/17 21:28:14;;;;;;;13.50;8.00;;;;;;;21.35;100.00;100838.98;213464;1291;139509;-83
2023/08/17 21:33:15;;;;;;;13.60;8.10;;;;;;;21.32;100.00;100844.37;212996;1291;142032;-83
2023/08/17 21:38:15;;;;;;;15.50;8.70;;;;;;;21.27;100.00;100848.82;213483;1290;139032;-83
2023/08/17 21:43:16;;;;;;;14.70;8.40;;;;;;;21.22;100.00;100842.87;213319;1291;141727;-83
2023/08/17 21:48:16;;;;;;;13.30;8.40;;;;;;;21.18;100.00;100843.05;213756;1290;139170;-83
2023/08/17 21:53:20;;;;;;;10.90;7.50;;;;;;;21.13;100.00;100844.06;212991;1291;144290;-83
2023/08/17 21:58:20;;;;;;;13.50;8.50;;;;;;;21.08;100.00;100844.49;207257;1291;8875490;-82
2023/08/17 22:03:22;;;;;;;14.90;8.60;;;;;;;21.02;100.00;100845.86;214419;1290;142014;-83
2023/08/17 22:08:22;;;;;;;14.20;7.80;;;;;;;20.96;100.00;100845.36;214893;1291;139334;-83
2023/08/17 22:13:24;;;;;;;12.10;7.90;;;;;;;20.90;100.00;100839.68;214249;1290;141471;-84
2023/08/17 22:18:25;;;;;;;17.90;8.70;;;;;;;20.85;100.00;100829.85;215059;1290;139742;-82
2023/08/17 22:23:25;;;;;;;12.20;6.80;;;;;;;20.82;100.00;100837.13;214449;1290;141207;-82
2023/08/17 22:28:27;;;;;;;13.60;6.40;;;;;;;20.80;100.00;100849.09;214920;1291;138883;-80
2023/08/17 22:33:27;;;;;;;10.30;6.20;;;;;;;20.77;100.00;100860.27;212854;1292;141689;-81